sensor_id;sensor_type;location;lat;lon;timestamp;pressure;altitude;pressure_sealevel;temperature;humidity
22333;BME280;11334;36.986;-121.936;2023-05-23T00:01:05;100848.72;;;23.84;50.13
22333;BME280;11334;36.986;-121.936;2023-05-23T00:03:32;100849.78;;;23.83;49.04
22333;BME280;11334;36.986;-121.936;2023-05-23T00:06:00;100846.84;;;23.84;49.04
22333;BME280;11334;36.986;-121.936;2023-05-23T00:08:27;100849.56;;;23.84;49.58
22333;BME280;11334;36.986;-121.936;2023-05-23T00:10:53;100848.16;;;23.82;49.80
22333;BME280;11334;36.986;-121.936;2023-05-23T00:13:19;100852.59;;;23.77;49.11
22333;BME280;11334;36.986;-121.936;2023-05-23T00:15:46;100852.28;;;23.73;49.94
22333;BME280;11334;36.986;-121.936;2023-05-23T00:18:13;100844.75;;;23.64;49.63
22333;BME280;11334;36.986;-121.936;2023-05-23T00:20:41;100843.50;;;23.55;49.99
22333;BME280;11334;36.986;-121.936;2023-05-23T00:23:11;100843.56;;;23.37;50.14
22333;BME280;11334;36.986;-121.936;2023-05-23T00:25:46;100846.78;;;23.23;50.40
22333;BME280;11334;36.986;-121.936;2023-05-23T00:28:17;100848.75;;;23.05;51.87
22333;BME280;11334;36.986;-121.936;2023-05-23T00:30:44;100854.72;;;22.95;51.94
22333;BME280;11334;36.986;-121.936;2023-05-23T00:33:10;100854.94;;;22.83;52.33
22333;BME280;11334;36.986;-121.936;2023-05-23T00:35:40;100854.13;;;22.53;53.16
22333;BME280;11334;36.986;-121.936;2023-05-23T00:38:06;100846.16;;;22.47;53.40
22333;BME280;11334;36.986;-121.936;2023-05-23T00:40:33;100850.69;;;22.35;53.72
22333;BME280;11334;36.986;-121.936;2023-05-23T00:43:00;100837.09;;;22.12;54.25
22333;BME280;11334;36.986;-121.936;2023-05-23T00:45:26;100845.19;;;22.12;55.22
22333;BME280;11334;36.986;-121.936;2023-05-23T00:47:52;100841.50;;;21.89;56.03
22333;BME280;11334;36.986;-121.936;2023-05-23T00:50:20;100845.13;;;21.83;55.01
22333;BME280;11334;36.986;-121.936;2023-05-23T00:52:47;100846.84;;;21.78;56.02
22333;BME280;11334;36.986;-121.936;2023-05-23T00:55:14;100849.00;;;21.69;56.36
22333;BME280;11334;36.986;-121.936;2023-05-23T00:57:41;100846.25;;;21.58;56.59
22333;BME280;11334;36.986;-121.936;2023-05-23T01:00:12;100851.19;;;21.43;57.07
22333;BME280;11334;36.986;-121.936;2023-05-23T01:02:44;100847.34;;;21.33;57.69
22333;BME280;11334;36.986;-121.936;2023-05-23T01:05:13;100848.50;;;21.19;57.91
22333;BME280;11334;36.986;-121.936;2023-05-23T01:07:48;100864.44;;;21.03;58.68
22333;BME280;11334;36.986;-121.936;2023-05-23T01:10:18;100859.13;;;20.90;59.20
22333;BME280;11334;36.986;-121.936;2023-05-23T01:13:05;100856.34;;;20.79;59.94
22333;BME280;11334;36.986;-121.936;2023-05-23T01:15:53;100847.94;;;20.62;60.71
22333;BME280;11334;36.986;-121.936;2023-05-23T01:18:34;100858.41;;;20.46;61.64
22333;BME280;11334;36.986;-121.936;2023-05-23T01:21:06;100862.00;;;20.34;61.86
22333;BME280;11334;36.986;-121.936;2023-05-23T01:26:31;100857.44;;;19.97;63.14
22333;BME280;11334;36.986;-121.936;2023-05-23T01:29:27;100856.19;;;19.94;63.78
22333;BME280;11334;36.986;-121.936;2023-05-23T01:31:56;100856.06;;;19.82;63.58
22333;BME280;11334;36.986;-121.936;2023-05-23T01:34:23;100859.81;;;19.62;65.06
22333;BME280;11334;36.986;-121.936;2023-05-23T01:36:53;100855.09;;;19.58;65.46
22333;BME280;11334;36.986;-121.936;2023-05-23T01:39:23;100855.94;;;19.45;66.12
22333;BME280;11334;36.986;-121.936;2023-05-23T01:41:50;100855.94;;;19.39;66.17
22333;BME280;11334;36.986;-121.936;2023-05-23T01:44:17;100846.88;;;19.27;66.99
22333;BME280;11334;36.986;-121.936;2023-05-23T01:46:45;100853.47;;;19.25;67.42
22333;BME280;11334;36.986;-121.936;2023-05-23T01:49:13;100855.19;;;19.13;67.91
22333;BME280;11334;36.986;-121.936;2023-05-23T01:51:41;100845.25;;;19.07;68.28
22333;BME280;11334;36.986;-121.936;2023-05-23T01:54:07;100854.97;;;19.01;68.61
22333;BME280;11334;36.986;-121.936;2023-05-23T01:56:34;100848.97;;;18.99;68.80
22333;BME280;11334;36.986;-121.936;2023-05-23T01:59:01;100843.38;;;18.88;69.26
22333;BME280;11334;36.986;-121.936;2023-05-23T02:01:28;100848.94;;;18.87;69.10
22333;BME280;11334;36.986;-121.936;2023-05-23T02:03:55;100847.31;;;18.79;69.50
22333;BME280;11334;36.986;-121.936;2023-05-23T02:06:21;100839.44;;;18.71;70.02
22333;BME280;11334;36.986;-121.936;2023-05-23T02:08:47;100844.00;;;18.65;70.61
22333;BME280;11334;36.986;-121.936;2023-05-23T02:11:13;100846.47;;;18.60;70.90
22333;BME280;11334;36.986;-121.936;2023-05-23T02:13:40;100841.09;;;18.53;70.68
22333;BME280;11334;36.986;-121.936;2023-05-23T02:16:06;100843.13;;;18.45;71.19
22333;BME280;11334;36.986;-121.936;2023-05-23T02:18:34;100846.44;;;18.40;71.70
22333;BME280;11334;36.986;-121.936;2023-05-23T02:21:06;100844.56;;;18.35;71.84
22333;BME280;11334;36.986;-121.936;2023-05-23T02:23:32;100839.41;;;18.27;72.04
22333;BME280;11334;36.986;-121.936;2023-05-23T02:25:59;100854.88;;;18.25;72.40
22333;BME280;11334;36.986;-121.936;2023-05-23T02:28:25;100831.50;;;18.06;72.87
22333;BME280;11334;36.986;-121.936;2023-05-23T02:30:51;100853.63;;;18.14;72.93
22333;BME280;11334;36.986;-121.936;2023-05-23T02:33:17;100856.28;;;18.14;72.50
22333;BME280;11334;36.986;-121.936;2023-05-23T02:35:44;100862.66;;;18.07;73.35
22333;BME280;11334;36.986;-121.936;2023-05-23T02:38:10;100861.97;;;17.99;73.80
22333;BME280;11334;36.986;-121.936;2023-05-23T02:40:37;100861.16;;;17.98;74.27
22333;BME280;11334;36.986;-121.936;2023-05-23T02:43:03;100866.88;;;17.89;74.71
22333;BME280;11334;36.986;-121.936;2023-05-23T02:45:29;100869.16;;;17.85;74.95
22333;BME280;11334;36.986;-121.936;2023-05-23T02:47:55;100865.81;;;17.77;75.41
22333;BME280;11334;36.986;-121.936;2023-05-23T02:50:21;100872.59;;;17.73;75.50
22333;BME280;11334;36.986;-121.936;2023-05-23T02:52:48;100874.22;;;17.68;75.85
22333;BME280;11334;36.986;-121.936;2023-05-23T02:55:14;100882.66;;;17.65;76.71
22333;BME280;11334;36.986;-121.936;2023-05-23T02:57:40;100874.19;;;17.61;76.22
22333;BME280;11334;36.986;-121.936;2023-05-23T03:00:07;100878.94;;;17.59;76.72
22333;BME280;11334;36.986;-121.936;2023-05-23T03:02:35;100870.78;;;17.46;77.24
22333;BME280;11334;36.986;-121.936;2023-05-23T03:05:01;100870.44;;;17.49;77.52
22333;BME280;11334;36.986;-121.936;2023-05-23T03:07:28;100879.69;;;17.47;77.58
22333;BME280;11334;36.986;-121.936;2023-05-23T03:09:55;100875.91;;;17.41;78.53
22333;BME280;11334;36.986;-121.936;2023-05-23T03:12:21;100869.09;;;17.39;78.63
22333;BME280;11334;36.986;-121.936;2023-05-23T03:14:47;100862.91;;;17.39;78.85
22333;BME280;11334;36.986;-121.936;2023-05-23T03:17:14;100872.19;;;17.36;79.08
22333;BME280;11334;36.986;-121.936;2023-05-23T03:19:40;100875.44;;;17.32;79.44
22333;BME280;11334;36.986;-121.936;2023-05-23T03:22:07;100865.53;;;17.26;79.31
22333;BME280;11334;36.986;-121.936;2023-05-23T03:24:33;100880.56;;;17.27;79.35
22333;BME280;11334;36.986;-121.936;2023-05-23T03:26:59;100879.94;;;17.25;79.36
22333;BME280;11334;36.986;-121.936;2023-05-23T03:29:26;100883.38;;;17.19;79.55
22333;BME280;11334;36.986;-121.936;2023-05-23T03:31:52;100876.38;;;17.18;79.80
22333;BME280;11334;36.986;-121.936;2023-05-23T03:34:19;100877.59;;;17.15;79.96
22333;BME280;11334;36.986;-121.936;2023-05-23T03:36:45;100885.00;;;17.13;80.25
22333;BME280;11334;36.986;-121.936;2023-05-23T03:39:11;100886.34;;;17.03;80.48
22333;BME280;11334;36.986;-121.936;2023-05-23T03:41:37;100882.38;;;16.99;80.85
22333;BME280;11334;36.986;-121.936;2023-05-23T03:44:04;100883.16;;;16.93;81.46
22333;BME280;11334;36.986;-121.936;2023-05-23T03:46:30;100875.31;;;16.92;82.07
22333;BME280;11334;36.986;-121.936;2023-05-23T03:48:56;100878.00;;;16.92;82.23
22333;BME280;11334;36.986;-121.936;2023-05-23T03:51:22;100877.81;;;16.93;82.14
22333;BME280;11334;36.986;-121.936;2023-05-23T03:53:49;100877.34;;;16.90;82.35
22333;BME280;11334;36.986;-121.936;2023-05-23T03:56:15;100888.06;;;16.90;82.49
22333;BME280;11334;36.986;-121.936;2023-05-23T03:58:41;100882.72;;;16.90;82.74
22333;BME280;11334;36.986;-121.936;2023-05-23T04:01:07;100875.88;;;16.87;83.05
22333;BME280;11334;36.986;-121.936;2023-05-23T04:03:33;100885.19;;;16.91;83.12
22333;BME280;11334;36.986;-121.936;2023-05-23T04:06:00;100882.28;;;16.86;83.15
22333;BME280;11334;36.986;-121.936;2023-05-23T04:08:27;100880.19;;;16.82;83.45
22333;BME280;11334;36.986;-121.936;2023-05-23T04:10:54;100885.34;;;16.83;83.58
22333;BME280;11334;36.986;-121.936;2023-05-23T04:13:21;100885.91;;;16.79;83.89
22333;BME280;11334;36.986;-121.936;2023-05-23T04:15:49;100890.06;;;16.81;84.14
22333;BME280;11334;36.986;-121.936;2023-05-23T04:18:17;100893.78;;;16.80;84.17
22333;BME280;11334;36.986;-121.936;2023-05-23T04:20:43;100898.88;;;16.76;84.59
22333;BME280;11334;36.986;-121.936;2023-05-23T04:23:09;100888.03;;;16.63;85.04
22333;BME280;11334;36.986;-121.936;2023-05-23T04:25:35;100903.59;;;16.74;85.22
22333;BME280;11334;36.986;-121.936;2023-05-23T04:28:02;100900.91;;;16.74;85.37
22333;BME280;11334;36.986;-121.936;2023-05-23T04:30:28;100895.94;;;16.71;85.77
22333;BME280;11334;36.986;-121.936;2023-05-23T04:32:55;100901.41;;;16.63;86.01
22333;BME280;11334;36.986;-121.936;2023-05-23T04:35:23;100906.97;;;16.61;86.47
22333;BME280;11334;36.986;-121.936;2023-05-23T04:37:49;100906.31;;;16.59;86.72
22333;BME280;11334;36.986;-121.936;2023-05-23T04:40:22;100900.53;;;16.56;86.93
22333;BME280;11334;36.986;-121.936;2023-05-23T04:42:49;100904.03;;;16.56;87.49
22333;BME280;11334;36.986;-121.936;2023-05-23T04:45:19;100900.28;;;16.51;87.85
22333;BME280;11334;36.986;-121.936;2023-05-23T04:47:45;100894.06;;;16.50;87.96
22333;BME280;11334;36.986;-121.936;2023-05-23T04:50:12;100900.44;;;16.49;88.58
22333;BME280;11334;36.986;-121.936;2023-05-23T04:52:41;100901.28;;;16.50;88.71
22333;BME280;11334;36.986;-121.936;2023-05-23T04:55:08;100905.38;;;16.46;89.22
22333;BME280;11334;36.986;-121.936;2023-05-23T04:57:34;100904.59;;;16.52;90.18
22333;BME280;11334;36.986;-121.936;2023-05-23T05:00:03;100915.47;;;16.50;90.83
22333;BME280;11334;36.986;-121.936;2023-05-23T05:02:38;100907.00;;;16.47;91.57
22333;BME280;11334;36.986;-121.936;2023-05-23T05:05:04;100908.03;;;16.46;91.23
22333;BME280;11334;36.986;-121.936;2023-05-23T05:07:31;100919.34;;;16.48;91.43
22333;BME280;11334;36.986;-121.936;2023-05-23T05:09:57;100907.19;;;16.45;91.74
22333;BME280;11334;36.986;-121.936;2023-05-23T05:12:23;100901.97;;;16.38;92.29
22333;BME280;11334;36.986;-121.936;2023-05-23T05:14:49;100912.88;;;16.36;92.81
22333;BME280;11334;36.986;-121.936;2023-05-23T05:17:15;100917.44;;;16.42;93.43
22333;BME280;11334;36.986;-121.936;2023-05-23T05:19:43;100919.88;;;16.37;93.01
22333;BME280;11334;36.986;-121.936;2023-05-23T05:22:10;100914.06;;;16.34;93.27
22333;BME280;11334;36.986;-121.936;2023-05-23T05:24:36;100914.63;;;16.29;93.41
22333;BME280;11334;36.986;-121.936;2023-05-23T05:27:05;100915.47;;;16.30;93.73
22333;BME280;11334;36.986;-121.936;2023-05-23T05:29:31;100916.28;;;16.30;94.62
22333;BME280;11334;36.986;-121.936;2023-05-23T05:31:58;100913.00;;;16.28;93.41
22333;BME280;11334;36.986;-121.936;2023-05-23T05:34:26;100923.47;;;16.30;92.71
22333;BME280;11334;36.986;-121.936;2023-05-23T05:36:52;100922.00;;;16.27;92.43
22333;BME280;11334;36.986;-121.936;2023-05-23T05:39:23;100916.66;;;16.27;92.52
22333;BME280;11334;36.986;-121.936;2023-05-23T05:41:50;100914.56;;;16.23;92.47
22333;BME280;11334;36.986;-121.936;2023-05-23T05:44:16;100918.50;;;16.27;92.14
22333;BME280;11334;36.986;-121.936;2023-05-23T05:46:42;100916.03;;;16.25;92.02
22333;BME280;11334;36.986;-121.936;2023-05-23T05:49:09;100917.69;;;16.26;91.65
22333;BME280;11334;36.986;-121.936;2023-05-23T05:51:35;100907.19;;;16.25;92.89
22333;BME280;11334;36.986;-121.936;2023-05-23T05:54:01;100919.56;;;16.26;93.02
22333;BME280;11334;36.986;-121.936;2023-05-23T05:56:27;100920.28;;;16.20;93.61
22333;BME280;11334;36.986;-121.936;2023-05-23T05:58:54;100912.34;;;16.12;93.70
22333;BME280;11334;36.986;-121.936;2023-05-23T06:01:20;100928.50;;;16.18;94.60
22333;BME280;11334;36.986;-121.936;2023-05-23T06:03:46;100930.53;;;16.16;94.93
22333;BME280;11334;36.986;-121.936;2023-05-23T06:06:12;100923.50;;;16.15;93.45
22333;BME280;11334;36.986;-121.936;2023-05-23T06:08:39;100919.84;;;16.16;93.04
22333;BME280;11334;36.986;-121.936;2023-05-23T06:11:05;100919.66;;;16.04;94.06
22333;BME280;11334;36.986;-121.936;2023-05-23T06:13:32;100916.72;;;15.99;95.58
22333;BME280;11334;36.986;-121.936;2023-05-23T06:15:58;100914.47;;;16.02;96.09
22333;BME280;11334;36.986;-121.936;2023-05-23T06:18:24;100911.97;;;16.01;97.34
22333;BME280;11334;36.986;-121.936;2023-05-23T06:20:51;100908.97;;;16.04;96.81
22333;BME280;11334;36.986;-121.936;2023-05-23T06:23:17;100911.44;;;16.05;96.88
22333;BME280;11334;36.986;-121.936;2023-05-23T06:25:43;100908.50;;;16.00;96.84
22333;BME280;11334;36.986;-121.936;2023-05-23T06:28:09;100905.25;;;16.05;96.57
22333;BME280;11334;36.986;-121.936;2023-05-23T06:30:36;100901.56;;;16.06;96.85
22333;BME280;11334;36.986;-121.936;2023-05-23T06:33:03;100903.78;;;16.02;96.73
22333;BME280;11334;36.986;-121.936;2023-05-23T06:35:30;100899.53;;;16.08;96.57
22333;BME280;11334;36.986;-121.936;2023-05-23T06:37:56;100904.88;;;16.08;95.98
22333;BME280;11334;36.986;-121.936;2023-05-23T06:40:22;100900.94;;;16.04;96.37
22333;BME280;11334;36.986;-121.936;2023-05-23T06:42:48;100899.47;;;16.01;96.75
22333;BME280;11334;36.986;-121.936;2023-05-23T06:45:15;100903.91;;;15.94;97.15
22333;BME280;11334;36.986;-121.936;2023-05-23T06:47:42;100907.66;;;16.00;97.87
22333;BME280;11334;36.986;-121.936;2023-05-23T06:50:15;100896.53;;;15.96;97.81
22333;BME280;11334;36.986;-121.936;2023-05-23T06:52:44;100893.88;;;15.96;98.60
22333;BME280;11334;36.986;-121.936;2023-05-23T06:55:11;100907.22;;;15.96;99.23
22333;BME280;11334;36.986;-121.936;2023-05-23T06:57:43;100914.38;;;15.96;98.40
22333;BME280;11334;36.986;-121.936;2023-05-23T07:00:09;100911.53;;;15.97;97.72
22333;BME280;11334;36.986;-121.936;2023-05-23T07:02:38;100903.69;;;15.96;97.00
22333;BME280;11334;36.986;-121.936;2023-05-23T07:05:05;100906.47;;;15.88;98.15
22333;BME280;11334;36.986;-121.936;2023-05-23T07:07:31;100891.84;;;15.84;98.97
22333;BME280;11334;36.986;-121.936;2023-05-23T07:09:57;100905.66;;;15.87;99.14
22333;BME280;11334;36.986;-121.936;2023-05-23T07:12:23;100898.84;;;15.85;99.09
22333;BME280;11334;36.986;-121.936;2023-05-23T07:14:50;100902.16;;;15.87;97.90
22333;BME280;11334;36.986;-121.936;2023-05-23T07:17:16;100906.69;;;15.86;97.67
22333;BME280;11334;36.986;-121.936;2023-05-23T07:19:42;100903.00;;;15.87;97.37
22333;BME280;11334;36.986;-121.936;2023-05-23T07:22:08;100909.72;;;15.83;97.17
22333;BME280;11334;36.986;-121.936;2023-05-23T07:24:35;100903.75;;;15.81;96.87
22333;BME280;11334;36.986;-121.936;2023-05-23T07:27:01;100900.88;;;15.83;98.33
22333;BME280;11334;36.986;-121.936;2023-05-23T07:29:28;100892.50;;;15.72;99.46
22333;BME280;11334;36.986;-121.936;2023-05-23T07:31:54;100892.69;;;15.70;100.00
22333;BME280;11334;36.986;-121.936;2023-05-23T07:34:21;100904.66;;;15.74;100.00
22333;BME280;11334;36.986;-121.936;2023-05-23T07:36:47;100898.13;;;15.77;100.00
22333;BME280;11334;36.986;-121.936;2023-05-23T07:39:14;100898.94;;;15.77;99.56
22333;BME280;11334;36.986;-121.936;2023-05-23T07:41:47;100897.66;;;15.73;99.53
22333;BME280;11334;36.986;-121.936;2023-05-23T07:44:13;100903.19;;;15.72;99.79
22333;BME280;11334;36.986;-121.936;2023-05-23T07:46:40;100901.91;;;15.68;99.64
22333;BME280;11334;36.986;-121.936;2023-05-23T07:49:06;100899.59;;;15.65;100.00
22333;BME280;11334;36.986;-121.936;2023-05-23T07:51:33;100906.22;;;15.69;100.00
22333;BME280;11334;36.986;-121.936;2023-05-23T07:53:59;100910.94;;;15.67;100.00
22333;BME280;11334;36.986;-121.936;2023-05-23T07:56:25;100909.09;;;15.67;100.00
22333;BME280;11334;36.986;-121.936;2023-05-23T07:58:53;100902.94;;;15.67;100.00
22333;BME280;11334;36.986;-121.936;2023-05-23T08:01:19;100909.25;;;15.66;100.00
22333;BME280;11334;36.986;-121.936;2023-05-23T08:03:46;100911.13;;;15.65;100.00
22333;BME280;11334;36.986;-121.936;2023-05-23T08:06:12;100910.84;;;15.60;100.00
22333;BME280;11334;36.986;-121.936;2023-05-23T08:08:39;100897.84;;;15.57;100.00
22333;BME280;11334;36.986;-121.936;2023-05-23T08:11:05;100899.06;;;15.55;100.00
22333;BME280;11334;36.986;-121.936;2023-05-23T08:13:32;100901.34;;;15.58;100.00
22333;BME280;11334;36.986;-121.936;2023-05-23T08:15:58;100899.88;;;15.55;100.00
22333;BME280;11334;36.986;-121.936;2023-05-23T08:18:24;100894.72;;;15.54;100.00
22333;BME280;11334;36.986;-121.936;2023-05-23T08:20:50;100896.00;;;15.58;100.00
22333;BME280;11334;36.986;-121.936;2023-05-23T08:23:17;100885.31;;;15.44;99.67
22333;BME280;11334;36.986;-121.936;2023-05-23T08:25:43;100894.63;;;15.48;99.49
22333;BME280;11334;36.986;-121.936;2023-05-23T08:28:09;100896.28;;;15.48;99.52
22333;BME280;11334;36.986;-121.936;2023-05-23T08:30:36;100889.28;;;15.48;99.49
22333;BME280;11334;36.986;-121.936;2023-05-23T08:33:02;100890.50;;;15.45;99.38
22333;BME280;11334;36.986;-121.936;2023-05-23T08:35:32;100892.22;;;15.38;99.37
22333;BME280;11334;36.986;-121.936;2023-05-23T08:38:00;100891.22;;;15.39;99.47
22333;BME280;11334;36.986;-121.936;2023-05-23T08:40:29;100880.91;;;15.36;99.71
22333;BME280;11334;36.986;-121.936;2023-05-23T08:42:56;100889.56;;;15.38;100.00
22333;BME280;11334;36.986;-121.936;2023-05-23T08:45:22;100889.56;;;15.38;100.00
22333;BME280;11334;36.986;-121.936;2023-05-23T08:47:50;100881.38;;;15.40;100.00
22333;BME280;11334;36.986;-121.936;2023-05-23T08:50:17;100886.44;;;15.35;100.00
22333;BME280;11334;36.986;-121.936;2023-05-23T08:55:18;100888.47;;;15.33;100.00
22333;BME280;11334;36.986;-121.936;2023-05-23T08:57:45;100879.63;;;15.32;100.00
22333;BME280;11334;36.986;-121.936;2023-05-23T09:00:12;100886.44;;;15.35;100.00
22333;BME280;11334;36.986;-121.936;2023-05-23T09:02:45;100882.38;;;15.39;100.00
22333;BME280;11334;36.986;-121.936;2023-05-23T09:05:12;100890.00;;;15.42;100.00
22333;BME280;11334;36.986;-121.936;2023-05-23T09:07:39;100882.00;;;15.42;100.00
22333;BME280;11334;36.986;-121.936;2023-05-23T09:10:08;100883.84;;;15.41;100.00
22333;BME280;11334;36.986;-121.936;2023-05-23T09:12:35;100877.03;;;15.39;100.00
22333;BME280;11334;36.986;-121.936;2023-05-23T09:15:05;100879.44;;;15.34;100.00
22333;BME280;11334;36.986;-121.936;2023-05-23T09:17:35;100882.47;;;15.31;100.00
22333;BME280;11334;36.986;-121.936;2023-05-23T09:20:12;100875.47;;;15.30;100.00
22333;BME280;11334;36.986;-121.936;2023-05-23T09:22:39;100877.56;;;15.34;100.00
22333;BME280;11334;36.986;-121.936;2023-05-23T09:25:06;100879.91;;;15.37;100.00
22333;BME280;11334;36.986;-121.936;2023-05-23T09:27:33;100869.13;;;15.31;100.00
22333;BME280;11334;36.986;-121.936;2023-05-23T09:30:08;100871.13;;;15.29;100.00
22333;BME280;11334;36.986;-121.936;2023-05-23T09:32:34;100877.28;;;15.29;100.00
22333;BME280;11334;36.986;-121.936;2023-05-23T09:35:02;100857.50;;;15.24;100.00
22333;BME280;11334;36.986;-121.936;2023-05-23T09:37:41;100862.97;;;15.30;100.00
22333;BME280;11334;36.986;-121.936;2023-05-23T09:40:09;100868.84;;;15.26;100.00
22333;BME280;11334;36.986;-121.936;2023-05-23T09:42:46;100866.16;;;15.26;100.00
22333;BME280;11334;36.986;-121.936;2023-05-23T09:45:15;100867.00;;;15.26;100.00
22333;BME280;11334;36.986;-121.936;2023-05-23T09:47:51;100861.66;;;15.26;100.00
22333;BME280;11334;36.986;-121.936;2023-05-23T09:50:18;100864.16;;;15.28;100.00
22333;BME280;11334;36.986;-121.936;2023-05-23T09:52:44;100850.03;;;15.19;100.00
22333;BME280;11334;36.986;-121.936;2023-05-23T09:55:11;100868.41;;;15.22;100.00
22333;BME280;11334;36.986;-121.936;2023-05-23T09:57:42;100858.72;;;15.21;100.00
22333;BME280;11334;36.986;-121.936;2023-05-23T10:00:11;100855.59;;;15.18;100.00
22333;BME280;11334;36.986;-121.936;2023-05-23T10:03:09;100858.44;;;15.17;100.00
22333;BME280;11334;36.986;-121.936;2023-05-23T10:05:47;100857.06;;;15.20;100.00
22333;BME280;11334;36.986;-121.936;2023-05-23T10:13:16;100861.38;;;15.21;100.00
22333;BME280;11334;36.986;-121.936;2023-05-23T10:15:43;100860.94;;;15.18;100.00
22333;BME280;11334;36.986;-121.936;2023-05-23T10:18:19;100855.59;;;15.18;100.00
22333;BME280;11334;36.986;-121.936;2023-05-23T10:20:51;100852.91;;;15.18;100.00
22333;BME280;11334;36.986;-121.936;2023-05-23T10:23:19;100854.28;;;15.14;100.00
22333;BME280;11334;36.986;-121.936;2023-05-23T10:25:47;100857.97;;;15.13;100.00
22333;BME280;11334;36.986;-121.936;2023-05-23T10:28:14;100856.94;;;15.14;100.00
22333;BME280;11334;36.986;-121.936;2023-05-23T10:30:41;100864.34;;;15.12;100.00
22333;BME280;11334;36.986;-121.936;2023-05-23T10:33:08;100867.47;;;15.16;100.00
22333;BME280;11334;36.986;-121.936;2023-05-23T10:36:10;100866.81;;;15.14;100.00
22333;BME280;11334;36.986;-121.936;2023-05-23T10:38:44;100875.63;;;15.14;100.00
22333;BME280;11334;36.986;-121.936;2023-05-23T10:41:20;100884.00;;;15.11;100.00
22333;BME280;11334;36.986;-121.936;2023-05-23T10:43:56;100870.88;;;15.10;100.00
22333;BME280;11334;36.986;-121.936;2023-05-23T10:46:53;100875.34;;;15.09;100.00
22333;BME280;11334;36.986;-121.936;2023-05-23T10:49:20;100873.84;;;15.07;100.00
22333;BME280;11334;36.986;-121.936;2023-05-23T10:51:50;100870.34;;;15.06;100.00
22333;BME280;11334;36.986;-121.936;2023-05-23T10:54:19;100875.88;;;15.05;100.00
22333;BME280;11334;36.986;-121.936;2023-05-23T10:56:45;100870.72;;;15.03;100.00
22333;BME280;11334;36.986;-121.936;2023-05-23T10:59:21;100870.19;;;15.08;100.00
22333;BME280;11334;36.986;-121.936;2023-05-23T11:01:50;100866.84;;;15.06;100.00
22333;BME280;11334;36.986;-121.936;2023-05-23T11:04:24;100871.53;;;15.04;100.00
22333;BME280;11334;36.986;-121.936;2023-05-23T11:06:55;100858.13;;;14.97;100.00
22333;BME280;11334;36.986;-121.936;2023-05-23T11:09:22;100865.09;;;14.98;100.00
22333;BME280;11334;36.986;-121.936;2023-05-23T11:12:00;100852.03;;;15.03;100.00
22333;BME280;11334;36.986;-121.936;2023-05-23T11:16:57;100851.66;;;14.92;100.00
22333;BME280;11334;36.986;-121.936;2023-05-23T11:19:25;100859.31;;;14.95;100.00
22333;BME280;11334;36.986;-121.936;2023-05-23T11:21:58;100860.78;;;14.97;100.00
22333;BME280;11334;36.986;-121.936;2023-05-23T11:24:47;100869.50;;;14.91;100.00
22333;BME280;11334;36.986;-121.936;2023-05-23T11:27:37;100867.31;;;14.95;100.00
22333;BME280;11334;36.986;-121.936;2023-05-23T11:30:13;100869.13;;;14.94;100.00
22333;BME280;11334;36.986;-121.936;2023-05-23T11:32:41;100863.47;;;14.97;100.00
22333;BME280;11334;36.986;-121.936;2023-05-23T11:35:09;100865.47;;;14.95;100.00
22333;BME280;11334;36.986;-121.936;2023-05-23T11:37:37;100858.47;;;14.94;100.00
22333;BME280;11334;36.986;-121.936;2023-05-23T11:40:27;100859.66;;;14.92;100.00
22333;BME280;11334;36.986;-121.936;2023-05-23T11:42:54;100862.16;;;14.93;100.00
22333;BME280;11334;36.986;-121.936;2023-05-23T11:45:21;100858.66;;;14.93;100.00
22333;BME280;11334;36.986;-121.936;2023-05-23T11:47:48;100846.69;;;14.89;100.00
22333;BME280;11334;36.986;-121.936;2023-05-23T11:50:15;100855.78;;;14.94;100.00
22333;BME280;11334;36.986;-121.936;2023-05-23T11:52:41;100859.31;;;14.95;100.00
22333;BME280;11334;36.986;-121.936;2023-05-23T11:55:08;100851.84;;;14.90;100.00
22333;BME280;11334;36.986;-121.936;2023-05-23T11:57:38;100856.97;;;14.92;100.00
22333;BME280;11334;36.986;-121.936;2023-05-23T12:00:08;100853.22;;;14.86;100.00
22333;BME280;11334;36.986;-121.936;2023-05-23T12:02:39;100850.81;;;14.91;100.00
22333;BME280;11334;36.986;-121.936;2023-05-23T12:05:09;100855.13;;;14.78;100.00
22333;BME280;11334;36.986;-121.936;2023-05-23T12:07:44;100860.19;;;14.73;100.00
22333;BME280;11334;36.986;-121.936;2023-05-23T12:10:12;100856.72;;;14.65;100.00
22333;BME280;11334;36.986;-121.936;2023-05-23T12:12:40;100860.41;;;14.64;100.00
22333;BME280;11334;36.986;-121.936;2023-05-23T12:15:10;100860.50;;;14.56;100.00
22333;BME280;11334;36.986;-121.936;2023-05-23T12:17:45;100865.63;;;14.57;100.00
22333;BME280;11334;36.986;-121.936;2023-05-23T12:20:12;100870.50;;;14.54;100.00
22333;BME280;11334;36.986;-121.936;2023-05-23T12:22:38;100842.53;;;14.50;100.00
22333;BME280;11334;36.986;-121.936;2023-05-23T12:25:08;100857.47;;;14.59;100.00
22333;BME280;11334;36.986;-121.936;2023-05-23T12:27:35;100861.97;;;14.58;100.00
22333;BME280;11334;36.986;-121.936;2023-05-23T12:30:09;100866.41;;;14.66;100.00
22333;BME280;11334;36.986;-121.936;2023-05-23T12:32:40;100853.97;;;14.58;100.00
22333;BME280;11334;36.986;-121.936;2023-05-23T12:35:08;100864.44;;;14.60;100.00
22333;BME280;11334;36.986;-121.936;2023-05-23T12:37:44;100854.34;;;14.55;100.00